createdAt,value
2023-01-21T00:01:11.368Z,100907.70
2023-01-21T00:03:44.630Z,100915.48
2023-01-21T00:06:17.903Z,100911.14
2023-01-21T00:08:50.935Z,100916.33
2023-01-21T00:11:23.465Z,100918.91
2023-01-21T00:13:56.644Z,100906.83
2023-01-21T00:16:28.889Z,100923.27
2023-01-21T00:19:01.644Z,100914.61
2023-01-21T00:21:34.696Z,100921.51
2023-01-21T00:24:07.407Z,100918.04
2023-01-21T00:26:40.228Z,100916.33
2023-01-21T00:29:13.348Z,100919.80
2023-01-21T00:31:46.388Z,100914.64
2023-01-21T00:34:18.638Z,100914.64
2023-01-21T00:36:51.361Z,100922.42
2023-01-21T00:39:23.619Z,100919.83
2023-01-21T00:41:55.784Z,100923.30
2023-01-21T00:44:28.249Z,100927.61
2023-01-21T00:47:00.490Z,100933.66
2023-01-21T00:49:33.057Z,100921.58
2023-01-21T00:52:05.189Z,100930.20
2023-01-21T00:54:37.822Z,100933.66
2023-01-21T00:57:10.062Z,100931.08
2023-01-21T00:59:42.941Z,100929.36
2023-01-21T01:02:15.866Z,100932.83
2023-01-21T01:04:48.870Z,100931.11
2023-01-21T01:07:22.239Z,100931.11
2023-01-21T01:09:55.273Z,100938.00
2023-01-21T01:12:29.785Z,100944.91
2023-01-21T01:15:01.247Z,100944.94
2023-01-21T01:17:33.443Z,100943.16
2023-01-21T01:20:06.413Z,100945.80
2023-01-21T01:22:41.911Z,100942.37
2023-01-21T01:25:15.362Z,100947.55
2023-01-21T01:27:47.923Z,100950.13
2023-01-21T01:30:20.793Z,100950.13
2023-01-21T01:32:52.995Z,100957.06
2023-01-21T01:35:25.517Z,100956.19
2023-01-21T01:38:00.346Z,100965.67
2023-01-21T01:40:37.097Z,100962.23
2023-01-21T01:43:29.102Z,100970.85
2023-01-21T01:46:02.475Z,100972.61
2023-01-21T01:48:35.664Z,100980.38
2023-01-21T01:51:09.061Z,100980.38
2023-01-21T01:53:44.061Z,100982.96
2023-01-21T01:56:17.599Z,100981.21
2023-01-21T01:58:50.807Z,100989.02
2023-01-21T02:01:24.417Z,100997.62
2023-01-21T02:04:01.807Z,101001.11
2023-01-21T02:06:35.631Z,100994.19
2023-01-21T02:09:08.635Z,101008.00
2023-01-21T02:11:40.995Z,101008.00
2023-01-21T02:14:14.046Z,101008.86
2023-01-21T02:17:07.600Z,101008.02
2023-01-21T02:20:06.112Z,101010.59
2023-01-21T02:22:47.610Z,101014.05
2023-01-21T02:25:32.220Z,101017.48
2023-01-21T02:28:13.319Z,101017.49
2023-01-21T02:31:00.346Z,101020.06
2023-01-21T02:33:41.452Z,101024.38
2023-01-21T02:36:19.425Z,101033.87
2023-01-21T02:39:14.419Z,101031.27
2023-01-21T02:42:10.207Z,101035.58
2023-01-21T02:44:55.258Z,101031.27
2023-01-21T02:47:36.324Z,101043.32
2023-01-21T02:50:23.603Z,101048.50
2023-01-21T02:53:00.706Z,101047.61
2023-01-21T02:55:40.390Z,101042.42
2023-01-21T02:58:16.161Z,101048.47
2023-01-21T03:01:07.164Z,101054.52
2023-01-21T03:04:11.321Z,101055.38
2023-01-21T03:07:04.503Z,101058.82
2023-01-21T03:09:37.436Z,101056.24
2023-01-21T03:12:12.475Z,101065.72
2023-01-21T03:15:11.363Z,101060.56
2023-01-21T03:18:12.309Z,101067.45
2023-01-21T03:20:48.050Z,101069.16
2023-01-21T03:23:27.452Z,101064.88
2023-01-21T03:26:02.449Z,101065.71
2023-01-21T03:28:39.306Z,101065.69
2023-01-21T03:31:21.381Z,101063.13
2023-01-21T03:33:56.403Z,101063.11
2023-01-21T03:36:55.838Z,101070.87
2023-01-21T03:39:48.933Z,101076.90
2023-01-21T03:42:23.231Z,101075.17
2023-01-21T03:44:56.272Z,101076.90
2023-01-21T03:47:32.048Z,101084.66
2023-01-21T03:50:19.599Z,101091.52
2023-01-21T03:52:52.283Z,101089.77
2023-01-21T03:55:24.714Z,101088.08
2023-01-21T03:57:57.197Z,101093.21
2023-01-21T04:00:30.463Z,101098.39
2023-01-21T04:03:02.712Z,101094.93
2023-01-21T04:05:36.205Z,101105.28
2023-01-21T04:08:11.266Z,101106.14
2023-01-21T04:10:44.142Z,101108.66
2023-01-21T04:13:16.497Z,101106.89
2023-01-21T04:15:48.971Z,101118.05
2023-01-21T04:18:23.397Z,101124.05
2023-01-21T04:21:01.205Z,101126.61
2023-01-21T04:23:33.297Z,101120.55
2023-01-21T04:26:05.998Z,101135.19
2023-01-21T04:28:38.961Z,101136.04
2023-01-21T04:31:11.909Z,101141.16
2023-01-21T04:33:45.135Z,101153.24
2023-01-21T04:36:17.627Z,101145.48
2023-01-21T04:38:49.783Z,101146.30
2023-01-21T04:41:24.500Z,101152.33
2023-01-21T04:43:56.093Z,101155.72
2023-01-21T04:46:28.488Z,101158.33
2023-01-21T04:49:01.964Z,101165.20
2023-01-21T04:51:34.534Z,101169.49
2023-01-21T04:54:07.401Z,101172.94
2023-01-21T04:56:39.932Z,101175.55
2023-01-21T04:59:13.160Z,101178.12
2023-01-21T05:01:45.520Z,101175.50
2023-01-21T05:04:18.013Z,101176.34
2023-01-21T05:06:50.292Z,101178.05
2023-01-21T05:09:23.542Z,101184.05
2023-01-21T05:11:57.461Z,101182.30
2023-01-21T05:14:32.188Z,101189.99
2023-01-21T05:17:05.211Z,101192.55
2023-01-21T05:19:37.534Z,101192.53
2023-01-21T05:22:12.770Z,101200.26
2023-01-21T05:24:45.363Z,101202.83
2023-01-21T05:27:17.546Z,101202.80
2023-01-21T05:29:49.873Z,101206.20
2023-01-21T05:32:22.470Z,101213.09
2023-01-21T05:34:54.927Z,101207.06
2023-01-21T05:37:30.265Z,101213.05
2023-01-21T05:40:02.516Z,101219.91
2023-01-21T05:42:35.060Z,101219.91
2023-01-21T05:45:08.122Z,101224.19
2023-01-21T05:47:40.453Z,101231.89
2023-01-21T05:50:13.908Z,101228.50
2023-01-21T05:52:46.383Z,101237.95
2023-01-21T05:55:18.887Z,101243.94
2023-01-21T05:57:51.674Z,101245.64
2023-01-21T06:00:24.115Z,101244.73
2023-01-21T06:02:56.599Z,101249.91
2023-01-21T06:05:29.133Z,101254.20
2023-01-21T06:08:02.493Z,101255.08
2023-01-21T06:10:35.187Z,101255.03
2023-01-21T06:13:07.323Z,101248.99
2023-01-21T06:15:39.873Z,101255.03
2023-01-21T06:18:12.531Z,101259.39
2023-01-21T06:20:46.463Z,101256.02
2023-01-21T06:23:18.904Z,101254.25
2023-01-21T06:25:51.181Z,101263.72
2023-01-21T06:28:23.893Z,101265.42
2023-01-21T06:30:56.254Z,101270.61
2023-01-21T06:33:31.398Z,101269.81
2023-01-21T06:36:03.699Z,101259.54
2023-01-21T06:38:38.008Z,101268.21
2023-01-21T06:41:11.575Z,101269.96
2023-01-21T06:43:44.150Z,101268.25
2023-01-21T06:46:16.792Z,101264.02
2023-01-21T06:48:50.505Z,101280.39
2023-01-21T06:51:22.305Z,101282.16
2023-01-21T06:53:55.562Z,101284.96
2023-01-21T06:56:27.695Z,101288.36
2023-01-21T06:58:59.966Z,101285.77
2023-01-21T07:01:32.893Z,101299.56
2023-01-21T07:04:04.970Z,101293.55
2023-01-21T07:06:38.077Z,101306.54
2023-01-21T07:09:11.511Z,101301.37
2023-01-21T07:11:44.298Z,101309.16
2023-01-21T07:14:16.776Z,101305.75
2023-01-21T07:16:48.864Z,101312.63
2023-01-21T07:19:21.062Z,101309.16
2023-01-21T07:21:54.157Z,101310.02
2023-01-21T07:24:26.764Z,101318.66
2023-01-21T07:26:59.236Z,101311.75
2023-01-21T07:29:32.177Z,101320.43
2023-01-21T07:32:04.833Z,101324.75
2023-01-21T07:34:38.123Z,101330.88
2023-01-21T07:37:11.609Z,101323.15
2023-01-21T07:39:44.704Z,101323.28
2023-01-21T07:42:17.163Z,101323.27
2023-01-21T07:44:52.879Z,101324.14
2023-01-21T07:47:25.717Z,101318.13
2023-01-21T07:49:58.261Z,101316.43
2023-01-21T07:52:30.913Z,101328.57
2023-01-21T07:55:08.003Z,101316.53
2023-01-21T07:57:41.345Z,101331.30
2023-01-21T08:00:14.476Z,101333.02
2023-01-21T08:02:49.005Z,101333.89
2023-01-21T08:05:21.606Z,101338.23
2023-01-21T08:07:54.016Z,101336.54
2023-01-21T08:10:26.952Z,101346.06
2023-01-21T08:13:01.855Z,101344.42
2023-01-21T08:15:34.673Z,101346.17
2023-01-21T08:18:07.999Z,101341.89
2023-01-21T08:20:40.707Z,101336.78
2023-01-21T08:23:15.305Z,101342.89
2023-01-21T08:25:47.889Z,101346.34
2023-01-21T08:28:21.806Z,101359.28
2023-01-21T08:30:54.255Z,101344.58
2023-01-21T08:33:26.566Z,101347.20
2023-01-21T08:36:04.114Z,101350.66
2023-01-21T08:38:38.745Z,101350.69
2023-01-21T08:41:11.168Z,101346.38
2023-01-21T08:43:43.563Z,101351.57
2023-01-21T08:46:16.540Z,101348.97
2023-01-21T08:48:48.976Z,101345.53
2023-01-21T08:51:21.406Z,101349.86
2023-01-21T08:53:56.225Z,101349.03
2023-01-21T08:56:29.158Z,101348.29
2023-01-21T08:59:03.065Z,101347.36
2023-01-21T09:01:37.247Z,101349.97
2023-01-21T09:04:10.321Z,101348.25
2023-01-21T09:06:42.973Z,101347.38
2023-01-21T09:09:15.079Z,101347.42
2023-01-21T09:11:47.774Z,101350.87
2023-01-21T09:14:22.004Z,101344.83
2023-01-21T09:16:56.335Z,101348.29
2023-01-21T09:19:29.454Z,101343.09
2023-01-21T09:22:01.680Z,101354.33
2023-01-21T09:24:35.209Z,101350.00
2023-01-21T09:27:12.373Z,101347.42
2023-01-21T09:29:45.982Z,101352.58
2023-01-21T09:32:19.605Z,101357.73
2023-01-21T09:34:52.640Z,101349.10
2023-01-21T09:37:25.325Z,101351.68
2023-01-21T09:39:57.746Z,101352.54
2023-01-21T09:42:35.864Z,101353.45
2023-01-21T09:45:09.782Z,101348.25
2023-01-21T09:47:44.884Z,101348.27
2023-01-21T09:50:21.352Z,101354.30
2023-01-21T09:52:56.873Z,101352.63
2023-01-21T09:55:37.700Z,101362.16
2023-01-21T09:58:31.526Z,101354.40
2023-01-21T10:01:22.445Z,101350.96
2023-01-21T10:04:03.602Z,101341.49
2023-01-21T10:06:44.213Z,101343.24
2023-01-21T10:09:22.618Z,101343.25
2023-01-21T10:12:03.434Z,101346.72
2023-01-21T10:15:07.991Z,101345.87
2023-01-21T10:17:58.482Z,101340.69
2023-01-21T10:20:46.920Z,101340.69
2023-01-21T10:23:28.163Z,101332.89
2023-01-21T10:26:03.385Z,101336.34
2023-01-21T10:28:38.007Z,101332.02
2023-01-21T10:31:22.505Z,101340.66
2023-01-21T10:33:55.255Z,101336.34
2023-01-21T10:36:48.013Z,101327.76
2023-01-21T10:39:30.200Z,101333.78
2023-01-21T10:42:21.972Z,101332.05
2023-01-21T10:45:18.545Z,101330.33
2023-01-21T10:48:05.601Z,101326.00
2023-01-21T10:50:54.833Z,101324.27
2023-01-21T10:53:48.645Z,101331.20
2023-01-21T10:56:29.913Z,101331.16
2023-01-21T10:59:08.519Z,101328.57
2023-01-21T11:01:50.020Z,101329.42
2023-01-21T11:04:25.262Z,101319.06
2023-01-21T11:07:06.847Z,101318.20
2023-01-21T11:09:45.432Z,101319.06
2023-01-21T11:12:24.356Z,101313.02
2023-01-21T11:15:05.249Z,101308.70
2023-01-21T11:17:41.698Z,101311.27
2023-01-21T11:20:36.910Z,101308.66
2023-01-21T11:23:28.536Z,101307.76
2023-01-21T11:26:07.703Z,101308.59
2023-01-21T11:28:40.838Z,101304.27
2023-01-21T11:31:16.234Z,101310.30
2023-01-21T11:33:48.877Z,101314.63
2023-01-21T11:36:22.677Z,101319.81
2023-01-21T11:39:04.280Z,101315.48
2023-01-21T11:41:37.085Z,101318.91
2023-01-21T11:44:20.415Z,101318.03
2023-01-21T11:46:52.656Z,101323.18
2023-01-21T11:49:34.883Z,101316.23
2023-01-21T11:52:19.495Z,101320.56
2023-01-21T11:54:54.410Z,101314.52
2023-01-21T11:57:29.293Z,101320.58
2023-01-21T12:00:07.742Z,101307.63
2023-01-21T12:02:46.276Z,101316.29
2023-01-21T12:05:35.890Z,101312.86
2023-01-21T12:08:11.103Z,101314.58
2023-01-21T12:10:48.079Z,101318.86
2023-01-21T12:13:23.492Z,101324.89
2023-01-21T12:16:17.988Z,101320.52
2023-01-21T12:19:18.907Z,101317.91
2023-01-21T12:22:00.581Z,101314.41
2023-01-21T12:24:44.953Z,101313.41
2023-01-21T12:27:39.632Z,101328.05
2023-01-21T12:30:30.311Z,101332.31
2023-01-21T12:33:14.855Z,101330.48
2023-01-21T12:35:56.262Z,101332.16
2023-01-21T12:38:34.103Z,101333.02
2023-01-21T12:41:13.710Z,101332.98
2023-01-21T12:43:58.136Z,101331.20
2023-01-21T12:46:35.318Z,101337.21
2023-01-21T12:49:16.461Z,101338.03
2023-01-21T12:51:55.353Z,101329.36
2023-01-21T12:54:51.600Z,101343.27
2023-01-21T12:57:30.329Z,101331.91
2023-01-21T13:00:08.468Z,101327.48
2023-01-21T13:02:46.247Z,101323.12
2023-01-21T13:05:30.923Z,101323.95
2023-01-21T13:08:34.022Z,101321.30
2023-01-21T13:11:24.306Z,101319.52
2023-01-21T13:13:59.231Z,101320.30
2023-01-21T13:16:34.973Z,101318.56
2023-01-21T13:19:07.969Z,101323.69
2023-01-21T13:21:43.496Z,101328.02
2023-01-21T13:24:21.969Z,101335.78
2023-01-21T13:27:09.209Z,101331.37
2023-01-21T13:29:59.082Z,101330.50
2023-01-21T13:32:54.432Z,101328.75
2023-01-21T13:36:00.677Z,101332.13
2023-01-21T13:38:48.316Z,101329.50
2023-01-21T13:41:33.822Z,101332.06
2023-01-21T13:48:07.999Z,101331.95
2023-01-21T13:50:49.096Z,101328.61
2023-01-21T13:53:43.114Z,101329.50
2023-01-21T13:56:33.565Z,101324.28
2023-01-21T13:59:12.551Z,101325.91
2023-01-21T14:01:48.308Z,101331.80
2023-01-21T14:04:35.752Z,101329.16
2023-01-21T14:07:30.917Z,101339.36
2023-01-21T14:10:15.584Z,101334.17
2023-01-21T14:12:56.887Z,101328.94
2023-01-21T14:15:47.127Z,101328.08
2023-01-21T14:18:41.738Z,101328.08
2023-01-21T14:21:31.484Z,101328.08
2023-01-21T14:24:25.262Z,101335.97
2023-01-21T14:27:15.098Z,101329.69
2023-01-21T14:29:54.907Z,101331.38
2023-01-21T14:32:42.545Z,101333.93
2023-01-21T14:35:24.714Z,101331.41
2023-01-21T14:38:33.739Z,101332.30
2023-01-21T14:41:08.983Z,101333.18
2023-01-21T14:43:45.193Z,101322.70
2023-01-21T14:46:37.808Z,101320.97
2023-01-21T14:49:12.372Z,101318.33
2023-01-21T14:51:48.137Z,101326.89
2023-01-21T14:54:23.971Z,101335.45
2023-01-21T14:57:17.338Z,101333.81
2023-01-21T14:59:43.740Z,101340.62
2023-01-21T15:02:37.508Z,101326.73
2023-01-21T15:05:28.136Z,101326.66
2023-01-21T15:08:10.413Z,101314.52
2023-01-21T15:10:44.988Z,101307.64
2023-01-21T15:13:37.568Z,101304.27
2023-01-21T15:16:40.434Z,101315.33
2023-01-21T15:19:16.579Z,101308.33
2023-01-21T15:22:26.985Z,101310.06
2023-01-21T15:25:20.786Z,101316.09
2023-01-21T15:28:16.826Z,101316.07
2023-01-21T15:31:04.475Z,101316.02
2023-01-21T15:33:44.564Z,101316.07
2023-01-21T15:36:30.157Z,101318.64
2023-01-21T15:39:12.989Z,101291.20
2023-01-21T15:41:57.010Z,101306.52
2023-01-21T15:44:38.561Z,101319.30
2023-01-21T15:47:23.026Z,101314.20
2023-01-21T15:50:04.466Z,101327.02
2023-01-21T15:52:45.009Z,101308.84
2023-01-21T15:55:48.561Z,101324.38
2023-01-21T15:58:35.794Z,101338.91
2023-01-21T16:01:27.074Z,101326.80
2023-01-21T16:04:12.080Z,101335.33
2023-01-21T16:07:02.846Z,101328.44
2023-01-21T16:09:41.305Z,101331.87
2023-01-21T16:12:41.065Z,101337.02
2023-01-21T16:15:35.344Z,101335.33
2023-01-21T16:18:13.475Z,101337.94
2023-01-21T16:20:49.160Z,101338.78
2023-01-21T16:23:24.511Z,101333.59
2023-01-21T16:26:05.872Z,101326.69
2023-01-21T16:28:45.395Z,101318.98
2023-01-21T16:31:19.979Z,101326.66
2023-01-21T16:33:53.853Z,101323.52
2023-01-21T16:36:25.560Z,101324.22
2023-01-21T16:38:57.525Z,101331.34
2023-01-21T16:41:29.983Z,101328.41
2023-01-21T16:44:05.708Z,101328.33
2023-01-21T16:46:40.744Z,101328.20
2023-01-21T16:49:17.804Z,101332.45
2023-01-21T16:51:53.023Z,101342.69
2023-01-21T16:54:31.364Z,101340.14
2023-01-21T16:57:06.421Z,101333.17
2023-01-21T16:59:45.391Z,101332.32
2023-01-21T17:02:21.027Z,101330.66
2023-01-21T17:05:03.980Z,101321.98
2023-01-21T17:07:42.171Z,101321.00
2023-01-21T17:10:23.510Z,101330.43
2023-01-21T17:13:11.628Z,101335.52
2023-01-21T17:15:46.567Z,101324.33
2023-01-21T17:18:24.964Z,101328.51
2023-01-21T17:21:15.377Z,101318.98
2023-01-21T17:23:59.343Z,101335.09
2023-01-21T17:26:41.966Z,101332.41
2023-01-21T17:29:22.334Z,101337.66
2023-01-21T17:32:06.480Z,101328.98
2023-01-21T17:34:40.967Z,101326.27
2023-01-21T17:37:46.053Z,101328.06
2023-01-21T17:40:39.257Z,101320.13
2023-01-21T17:43:14.983Z,101333.96
2023-01-21T17:45:54.010Z,101339.08
2023-01-21T17:48:32.313Z,101336.39
2023-01-21T17:51:07.315Z,101319.33
2023-01-21T17:53:46.378Z,101336.28
2023-01-21T17:56:21.762Z,101322.50
2023-01-21T17:58:55.843Z,101324.19
2023-01-21T18:01:28.772Z,101334.41
2023-01-21T18:04:02.692Z,101340.44
2023-01-21T18:06:36.491Z,101336.95
2023-01-21T18:09:16.399Z,101321.50
2023-01-21T18:11:51.075Z,101319.81
2023-01-21T18:14:27.283Z,101319.04
2023-01-21T18:17:01.229Z,101331.91
2023-01-21T18:19:41.823Z,101325.84
2023-01-21T18:22:26.587Z,101331.77
2023-01-21T18:24:58.131Z,101323.12
2023-01-21T18:27:30.673Z,101322.61
2023-01-21T18:30:17.429Z,101326.58
2023-01-21T18:32:51.245Z,101311.17
2023-01-21T18:35:24.301Z,101319.70
2023-01-21T18:37:57.522Z,101317.56
2023-01-21T18:40:29.861Z,101325.81
2023-01-21T18:43:02.231Z,101325.70
2023-01-21T18:45:34.656Z,101317.06
2023-01-21T18:48:09.534Z,101315.26
2023-01-21T18:50:41.892Z,101323.86
2023-01-21T18:53:14.604Z,101322.20
2023-01-21T18:55:50.166Z,101323.86
2023-01-21T18:58:22.175Z,101331.47
2023-01-21T19:00:55.211Z,101322.09
2023-01-21T19:03:27.291Z,101324.45
2023-01-21T19:06:00.498Z,101315.80
2023-01-21T19:08:32.781Z,101320.11
2023-01-21T19:11:05.113Z,101328.94
2023-01-21T19:13:37.633Z,101319.30
2023-01-21T19:16:19.197Z,101328.20
2023-01-21T19:18:51.758Z,101318.49
2023-01-21T19:21:25.387Z,101319.38
2023-01-21T19:23:57.234Z,101314.23
2023-01-21T19:26:31.982Z,101323.75
2023-01-21T19:29:06.012Z,101316.88
2023-01-21T19:31:38.227Z,101316.14
2023-01-21T19:34:11.291Z,101320.52
2023-01-21T19:36:43.919Z,101328.31
2023-01-21T19:39:20.747Z,101319.74
2023-01-21T19:42:07.269Z,101323.12
2023-01-21T19:44:28.482Z,101330.88
2023-01-21T19:47:02.605Z,101324.12
2023-01-21T19:49:35.046Z,101334.38
2023-01-21T19:52:08.016Z,101327.53
2023-01-21T19:54:40.134Z,101339.56
2023-01-21T19:57:16.839Z,101337.87
2023-01-21T19:59:50.883Z,101333.60
2023-01-21T20:02:23.314Z,101339.63
2023-01-21T20:04:58.188Z,101346.58
2023-01-21T20:07:37.126Z,101349.23
2023-01-21T20:10:17.513Z,101342.36
2023-01-21T20:12:52.465Z,101345.73
2023-01-21T20:15:30.430Z,101350.08
2023-01-21T20:18:05.344Z,101348.38
2023-01-21T20:20:36.809Z,101358.68
2023-01-21T20:23:13.129Z,101355.58
2023-01-21T20:25:49.307Z,101358.64
2023-01-21T20:28:24.269Z,101363.65
2023-01-21T20:30:57.175Z,101354.05
2023-01-21T20:33:29.889Z,101359.13
2023-01-21T20:36:05.354Z,101358.20
2023-01-21T20:38:39.703Z,101363.23
2023-01-21T20:41:13.833Z,101365.80
2023-01-21T20:43:47.284Z,101363.16
2023-01-21T20:46:25.298Z,101357.89
2023-01-21T20:49:00.556Z,101357.89
2023-01-21T20:51:33.126Z,101364.84
2023-01-21T20:54:05.546Z,101369.03
2023-01-21T20:56:38.600Z,101370.84
2023-01-21T20:59:11.797Z,101367.42
2023-01-21T21:01:46.760Z,101370.03
2023-01-21T21:04:19.464Z,101372.64
2023-01-21T21:06:52.507Z,101383.02
2023-01-21T21:09:24.857Z,101376.17
2023-01-21T21:11:57.280Z,101372.76
2023-01-21T21:14:30.353Z,101373.72
2023-01-21T21:17:03.143Z,101386.63
2023-01-21T21:19:35.250Z,101371.98
2023-01-21T21:22:09.096Z,101377.13
2023-01-21T21:24:43.213Z,101378.91
2023-01-21T21:27:14.964Z,101380.97
2023-01-21T21:29:47.181Z,101389.31
2023-01-21T21:32:20.363Z,101380.86
2023-01-21T21:34:55.238Z,101379.98
2023-01-21T21:37:29.127Z,101395.38
2023-01-21T21:40:01.936Z,101397.11
2023-01-21T21:42:51.711Z,101390.53
2023-01-21T21:45:24.729Z,101396.27
2023-01-21T21:48:15.335Z,101403.91
2023-01-21T21:50:48.725Z,101405.53
2023-01-21T21:53:21.279Z,101397.77
2023-01-21T21:55:53.710Z,101405.53
2023-01-21T21:58:27.805Z,101402.15
2023-01-21T22:01:14.172Z,101396.96
2023-01-21T22:03:47.583Z,101395.27
2023-01-21T22:06:22.910Z,101393.61
2023-01-21T22:08:57.732Z,101399.65
2023-01-21T22:11:30.804Z,101403.95
2023-01-21T22:14:05.983Z,101399.77
2023-01-21T22:16:40.284Z,101398.00
2023-01-21T22:19:13.316Z,101398.77
2023-01-21T22:21:45.868Z,101401.34
2023-01-21T22:24:18.292Z,101399.65
2023-01-21T22:26:50.723Z,101408.25
2023-01-21T22:29:22.860Z,101401.41
2023-01-21T22:31:55.141Z,101399.72
2023-01-21T22:34:27.551Z,101405.80
2023-01-21T22:37:00.095Z,101393.00
2023-01-21T22:39:33.659Z,101405.91
2023-01-21T22:42:05.664Z,101398.18
2023-01-21T22:44:37.824Z,101399.91
2023-01-21T22:47:11.428Z,101408.45
2023-01-21T22:49:45.555Z,101401.41
2023-01-21T22:52:19.219Z,101408.17
2023-01-21T22:54:51.746Z,101408.02
2023-01-21T22:57:24.182Z,101405.30
2023-01-21T22:59:56.548Z,101412.13
2023-01-21T23:02:29.115Z,101416.51
2023-01-21T23:05:01.271Z,101419.97
2023-01-21T23:07:34.335Z,101416.51
2023-01-21T23:10:06.874Z,101418.20
2023-01-21T23:12:38.994Z,101420.69
2023-01-21T23:15:11.330Z,101410.36
2023-01-21T23:17:43.914Z,101412.01
2023-01-21T23:20:16.862Z,101418.84
2023-01-21T23:22:49.911Z,101422.17
2023-01-21T23:25:22.553Z,101428.97
2023-01-21T23:27:54.683Z,101423.74
2023-01-21T23:30:26.803Z,101427.96
2023-01-21T23:33:00.434Z,101428.59
2023-01-21T23:35:34.326Z,101429.36
2023-01-21T23:38:07.113Z,101426.66
2023-01-21T23:40:39.620Z,101431.67
2023-01-21T23:43:12.117Z,101430.78
2023-01-21T23:45:44.611Z,101435.04
2023-01-21T23:48:16.857Z,101430.61
2023-01-21T23:50:49.119Z,101433.09
2023-01-21T23:53:21.242Z,101432.16
2023-01-21T23:55:53.992Z,101433.75
2023-01-21T23:58:27.144Z,101437.08
